sensor_id;sensor_type;location;lat;lon;timestamp;temperature;humidity
51559;DHT22;61650;48.882;2.092;2023-05-27T00:01:13;12.80;72.80
51559;DHT22;61650;48.882;2.092;2023-05-27T00:03:39;12.70;73.00
51559;DHT22;61650;48.882;2.092;2023-05-27T00:06:05;12.70;72.80
51559;DHT22;61650;48.882;2.092;2023-05-27T00:08:31;12.60;72.60
51559;DHT22;61650;48.882;2.092;2023-05-27T00:10:56;12.60;72.70
51559;DHT22;61650;48.882;2.092;2023-05-27T00:13:22;12.60;72.10
51559;DHT22;61650;48.882;2.092;2023-05-27T00:15:48;12.60;72.50
51559;DHT22;61650;48.882;2.092;2023-05-27T00:18:13;12.60;73.10
51559;DHT22;61650;48.882;2.092;2023-05-27T00:20:39;12.50;74.40
51559;DHT22;61650;48.882;2.092;2023-05-27T00:23:05;12.50;75.30
51559;DHT22;61650;48.882;2.092;2023-05-27T00:25:30;12.50;75.90
51559;DHT22;61650;48.882;2.092;2023-05-27T00:27:57;12.50;75.80
51559;DHT22;61650;48.882;2.092;2023-05-27T00:30:22;12.40;75.10
51559;DHT22;61650;48.882;2.092;2023-05-27T00:32:48;12.40;75.20
51559;DHT22;61650;48.882;2.092;2023-05-27T00:35:14;12.40;74.40
51559;DHT22;61650;48.882;2.092;2023-05-27T00:37:40;12.30;74.40
51559;DHT22;61650;48.882;2.092;2023-05-27T00:40:09;12.40;75.00
51559;DHT22;61650;48.882;2.092;2023-05-27T00:42:36;12.50;74.80
51559;DHT22;61650;48.882;2.092;2023-05-27T00:45:02;12.50;74.10
51559;DHT22;61650;48.882;2.092;2023-05-27T00:47:30;12.50;73.40
51559;DHT22;61650;48.882;2.092;2023-05-27T00:49:57;12.60;73.30
51559;DHT22;61650;48.882;2.092;2023-05-27T00:52:23;12.60;73.50
51559;DHT22;61650;48.882;2.092;2023-05-27T00:54:49;12.60;73.50
51559;DHT22;61650;48.882;2.092;2023-05-27T00:57:14;12.60;72.30
51559;DHT22;61650;48.882;2.092;2023-05-27T00:59:40;12.50;72.30
51559;DHT22;61650;48.882;2.092;2023-05-27T01:02:06;12.40;71.70
51559;DHT22;61650;48.882;2.092;2023-05-27T01:04:32;12.30;72.50
51559;DHT22;61650;48.882;2.092;2023-05-27T01:09:39;12.30;74.10
51559;DHT22;61650;48.882;2.092;2023-05-27T01:12:27;12.20;73.90
51559;DHT22;61650;48.882;2.092;2023-05-27T01:14:57;12.20;74.60
51559;DHT22;61650;48.882;2.092;2023-05-27T01:17:24;12.00;74.50
51559;DHT22;61650;48.882;2.092;2023-05-27T01:19:52;11.90;75.00
51559;DHT22;61650;48.882;2.092;2023-05-27T01:22:19;11.80;76.10
51559;DHT22;61650;48.882;2.092;2023-05-27T01:24:45;11.80;76.30
51559;DHT22;61650;48.882;2.092;2023-05-27T01:27:12;11.80;75.80
51559;DHT22;61650;48.882;2.092;2023-05-27T01:29:39;11.80;76.20
51559;DHT22;61650;48.882;2.092;2023-05-27T01:37:24;11.70;77.30
51559;DHT22;61650;48.882;2.092;2023-05-27T01:39:52;11.60;76.20
51559;DHT22;61650;48.882;2.092;2023-05-27T01:42:19;11.60;75.30
51559;DHT22;61650;48.882;2.092;2023-05-27T01:44:46;11.60;75.40
51559;DHT22;61650;48.882;2.092;2023-05-27T01:47:11;11.70;74.70
51559;DHT22;61650;48.882;2.092;2023-05-27T01:49:37;11.70;74.70
51559;DHT22;61650;48.882;2.092;2023-05-27T01:52:03;11.60;74.00
51559;DHT22;61650;48.882;2.092;2023-05-27T01:54:28;11.60;72.80
51559;DHT22;61650;48.882;2.092;2023-05-27T01:56:54;11.60;73.60
51559;DHT22;61650;48.882;2.092;2023-05-27T01:59:20;11.60;72.20
51559;DHT22;61650;48.882;2.092;2023-05-27T02:01:45;11.60;72.30
51559;DHT22;61650;48.882;2.092;2023-05-27T02:04:11;11.60;72.40
51559;DHT22;61650;48.882;2.092;2023-05-27T02:06:37;11.70;72.40
51559;DHT22;61650;48.882;2.092;2023-05-27T02:09:02;11.70;72.10
51559;DHT22;61650;48.882;2.092;2023-05-27T02:11:28;11.70;71.00
51559;DHT22;61650;48.882;2.092;2023-05-27T02:13:54;11.70;72.30
51559;DHT22;61650;48.882;2.092;2023-05-27T02:16:21;11.60;71.70
51559;DHT22;61650;48.882;2.092;2023-05-27T02:18:50;11.70;72.10
51559;DHT22;61650;48.882;2.092;2023-05-27T02:21:16;11.60;72.00
51559;DHT22;61650;48.882;2.092;2023-05-27T02:23:41;11.50;71.80
51559;DHT22;61650;48.882;2.092;2023-05-27T02:26:07;11.50;72.40
51559;DHT22;61650;48.882;2.092;2023-05-27T02:28:33;11.50;71.90
51559;DHT22;61650;48.882;2.092;2023-05-27T02:30:59;11.50;72.00
51559;DHT22;61650;48.882;2.092;2023-05-27T02:33:25;11.50;71.70
51559;DHT22;61650;48.882;2.092;2023-05-27T02:35:51;11.60;71.50
51559;DHT22;61650;48.882;2.092;2023-05-27T02:38:16;11.40;71.80
51559;DHT22;61650;48.882;2.092;2023-05-27T02:40:42;11.40;71.70
51559;DHT22;61650;48.882;2.092;2023-05-27T02:43:08;11.30;72.90
51559;DHT22;61650;48.882;2.092;2023-05-27T02:45:33;11.30;73.20
51559;DHT22;61650;48.882;2.092;2023-05-27T02:47:59;11.20;74.30
51559;DHT22;61650;48.882;2.092;2023-05-27T02:50:28;11.10;75.00
51559;DHT22;61650;48.882;2.092;2023-05-27T02:52:53;11.00;75.10
51559;DHT22;61650;48.882;2.092;2023-05-27T02:55:19;11.10;74.00
51559;DHT22;61650;48.882;2.092;2023-05-27T02:57:44;11.00;73.50
51559;DHT22;61650;48.882;2.092;2023-05-27T03:00:11;10.90;75.10
51559;DHT22;61650;48.882;2.092;2023-05-27T03:02:37;10.90;75.90
51559;DHT22;61650;48.882;2.092;2023-05-27T03:05:04;10.90;76.20
51559;DHT22;61650;48.882;2.092;2023-05-27T03:07:29;10.80;77.00
51559;DHT22;61650;48.882;2.092;2023-05-27T03:09:55;10.70;77.40
51559;DHT22;61650;48.882;2.092;2023-05-27T03:12:22;10.60;77.30
51559;DHT22;61650;48.882;2.092;2023-05-27T03:14:49;10.50;77.80
51559;DHT22;61650;48.882;2.092;2023-05-27T03:17:15;10.40;78.10
51559;DHT22;61650;48.882;2.092;2023-05-27T03:19:40;10.30;78.30
51559;DHT22;61650;48.882;2.092;2023-05-27T03:22:07;10.30;79.00
51559;DHT22;61650;48.882;2.092;2023-05-27T03:24:33;10.20;79.00
51559;DHT22;61650;48.882;2.092;2023-05-27T03:26:59;10.20;78.60
51559;DHT22;61650;48.882;2.092;2023-05-27T03:29:25;10.20;78.20
51559;DHT22;61650;48.882;2.092;2023-05-27T03:31:50;10.20;78.80
51559;DHT22;61650;48.882;2.092;2023-05-27T03:34:16;10.20;78.70
51559;DHT22;61650;48.882;2.092;2023-05-27T03:36:42;10.10;78.90
51559;DHT22;61650;48.882;2.092;2023-05-27T03:39:14;10.10;78.80
51559;DHT22;61650;48.882;2.092;2023-05-27T03:41:40;10.20;79.40
51559;DHT22;61650;48.882;2.092;2023-05-27T03:44:06;10.20;77.80
51559;DHT22;61650;48.882;2.092;2023-05-27T03:46:32;10.10;76.50
51559;DHT22;61650;48.882;2.092;2023-05-27T03:48:57;10.20;77.60
51559;DHT22;61650;48.882;2.092;2023-05-27T03:51:23;10.20;77.50
51559;DHT22;61650;48.882;2.092;2023-05-27T03:53:49;10.10;76.70
51559;DHT22;61650;48.882;2.092;2023-05-27T03:56:15;10.10;76.30
51559;DHT22;61650;48.882;2.092;2023-05-27T03:58:41;10.20;77.30
51559;DHT22;61650;48.882;2.092;2023-05-27T04:01:06;10.20;77.70
51559;DHT22;61650;48.882;2.092;2023-05-27T04:03:32;10.20;77.00
51559;DHT22;61650;48.882;2.092;2023-05-27T04:05:58;10.10;77.70
51559;DHT22;61650;48.882;2.092;2023-05-27T04:08:24;10.10;77.10
51559;DHT22;61650;48.882;2.092;2023-05-27T04:10:52;10.10;77.30
51559;DHT22;61650;48.882;2.092;2023-05-27T04:13:18;10.10;78.20
51559;DHT22;61650;48.882;2.092;2023-05-27T04:15:43;10.00;79.00
51559;DHT22;61650;48.882;2.092;2023-05-27T04:18:10;10.00;78.70
51559;DHT22;61650;48.882;2.092;2023-05-27T04:20:39;10.00;78.20
51559;DHT22;61650;48.882;2.092;2023-05-27T04:23:06;10.00;76.20
51559;DHT22;61650;48.882;2.092;2023-05-27T04:25:32;10.10;77.10
51559;DHT22;61650;48.882;2.092;2023-05-27T04:28:00;10.20;76.90
51559;DHT22;61650;48.882;2.092;2023-05-27T04:30:25;10.30;76.50
51559;DHT22;61650;48.882;2.092;2023-05-27T04:32:51;10.30;75.90
51559;DHT22;61650;48.882;2.092;2023-05-27T04:35:18;10.30;74.40
51559;DHT22;61650;48.882;2.092;2023-05-27T04:37:43;10.30;74.40
51559;DHT22;61650;48.882;2.092;2023-05-27T04:40:10;10.40;74.70
51559;DHT22;61650;48.882;2.092;2023-05-27T04:42:36;10.40;75.40
51559;DHT22;61650;48.882;2.092;2023-05-27T04:45:03;10.60;75.50
51559;DHT22;61650;48.882;2.092;2023-05-27T04:47:29;10.70;74.70
51559;DHT22;61650;48.882;2.092;2023-05-27T04:49:56;10.80;74.20
51559;DHT22;61650;48.882;2.092;2023-05-27T04:52:22;10.90;73.20
51559;DHT22;61650;48.882;2.092;2023-05-27T04:54:49;11.00;72.80
51559;DHT22;61650;48.882;2.092;2023-05-27T04:57:15;11.10;72.80
51559;DHT22;61650;48.882;2.092;2023-05-27T04:59:45;11.10;71.60
51559;DHT22;61650;48.882;2.092;2023-05-27T05:02:30;11.20;72.60
51559;DHT22;61650;48.882;2.092;2023-05-27T05:05:04;11.00;72.60
51559;DHT22;61650;48.882;2.092;2023-05-27T05:07:30;11.10;73.10
51559;DHT22;61650;48.882;2.092;2023-05-27T05:09:56;11.20;73.80
51559;DHT22;61650;48.882;2.092;2023-05-27T05:12:22;11.30;73.30
51559;DHT22;61650;48.882;2.092;2023-05-27T05:14:48;11.40;72.20
51559;DHT22;61650;48.882;2.092;2023-05-27T05:17:14;11.40;71.50
51559;DHT22;61650;48.882;2.092;2023-05-27T05:19:39;11.40;71.50
51559;DHT22;61650;48.882;2.092;2023-05-27T05:22:05;11.50;70.80
51559;DHT22;61650;48.882;2.092;2023-05-27T05:24:31;11.50;70.60
51559;DHT22;61650;48.882;2.092;2023-05-27T05:26:56;11.60;70.80
51559;DHT22;61650;48.882;2.092;2023-05-27T05:29:22;11.60;70.80
51559;DHT22;61650;48.882;2.092;2023-05-27T05:31:48;11.80;70.90
51559;DHT22;61650;48.882;2.092;2023-05-27T05:34:13;11.80;70.60
51559;DHT22;61650;48.882;2.092;2023-05-27T05:36:39;11.90;69.20
51559;DHT22;61650;48.882;2.092;2023-05-27T05:39:04;11.90;70.00
51559;DHT22;61650;48.882;2.092;2023-05-27T05:41:31;12.00;69.30
51559;DHT22;61650;48.882;2.092;2023-05-27T05:43:56;12.10;69.60
51559;DHT22;61650;48.882;2.092;2023-05-27T05:46:22;12.20;69.40
51559;DHT22;61650;48.882;2.092;2023-05-27T05:48:51;12.20;68.30
51559;DHT22;61650;48.882;2.092;2023-05-27T05:51:17;12.10;69.00
51559;DHT22;61650;48.882;2.092;2023-05-27T05:53:42;12.20;69.30
51559;DHT22;61650;48.882;2.092;2023-05-27T05:56:08;12.30;68.20
51559;DHT22;61650;48.882;2.092;2023-05-27T05:58:34;12.30;68.80
51559;DHT22;61650;48.882;2.092;2023-05-27T06:00:59;12.30;68.20
51559;DHT22;61650;48.882;2.092;2023-05-27T06:03:25;12.40;68.50
51559;DHT22;61650;48.882;2.092;2023-05-27T06:05:51;12.40;68.40
51559;DHT22;61650;48.882;2.092;2023-05-27T06:08:17;12.40;68.70
51559;DHT22;61650;48.882;2.092;2023-05-27T06:10:42;12.50;68.70
51559;DHT22;61650;48.882;2.092;2023-05-27T06:13:08;12.60;68.20
51559;DHT22;61650;48.882;2.092;2023-05-27T06:15:36;12.60;67.50
51559;DHT22;61650;48.882;2.092;2023-05-27T06:18:03;12.60;68.00
51559;DHT22;61650;48.882;2.092;2023-05-27T06:20:29;12.70;68.20
51559;DHT22;61650;48.882;2.092;2023-05-27T06:22:54;12.70;67.50
51559;DHT22;61650;48.882;2.092;2023-05-27T06:25:20;12.70;67.10
51559;DHT22;61650;48.882;2.092;2023-05-27T06:27:46;12.80;67.40
51559;DHT22;61650;48.882;2.092;2023-05-27T06:30:11;12.80;67.40
51559;DHT22;61650;48.882;2.092;2023-05-27T06:32:37;12.80;66.70
51559;DHT22;61650;48.882;2.092;2023-05-27T06:35:03;12.80;67.40
51559;DHT22;61650;48.882;2.092;2023-05-27T06:37:29;12.90;67.30
51559;DHT22;61650;48.882;2.092;2023-05-27T06:39:54;13.00;66.80
51559;DHT22;61650;48.882;2.092;2023-05-27T06:42:20;13.00;67.10
51559;DHT22;61650;48.882;2.092;2023-05-27T06:44:48;13.10;67.50
51559;DHT22;61650;48.882;2.092;2023-05-27T06:47:13;13.20;67.70
51559;DHT22;61650;48.882;2.092;2023-05-27T06:49:39;13.40;67.10
51559;DHT22;61650;48.882;2.092;2023-05-27T06:52:05;13.50;67.10
51559;DHT22;61650;48.882;2.092;2023-05-27T06:54:31;13.60;67.00
51559;DHT22;61650;48.882;2.092;2023-05-27T06:56:56;13.70;66.60
51559;DHT22;61650;48.882;2.092;2023-05-27T06:59:22;13.70;66.50
51559;DHT22;61650;48.882;2.092;2023-05-27T07:01:48;13.80;65.80
51559;DHT22;61650;48.882;2.092;2023-05-27T07:04:13;13.80;65.90
51559;DHT22;61650;48.882;2.092;2023-05-27T07:06:39;14.00;64.90
51559;DHT22;61650;48.882;2.092;2023-05-27T07:09:05;14.20;65.40
51559;DHT22;61650;48.882;2.092;2023-05-27T07:11:31;14.30;64.60
51559;DHT22;61650;48.882;2.092;2023-05-27T07:13:57;14.50;64.70
51559;DHT22;61650;48.882;2.092;2023-05-27T07:16:22;14.60;63.90
51559;DHT22;61650;48.882;2.092;2023-05-27T07:18:48;14.70;64.60
51559;DHT22;61650;48.882;2.092;2023-05-27T07:21:14;14.80;63.80
51559;DHT22;61650;48.882;2.092;2023-05-27T07:23:39;14.80;63.10
51559;DHT22;61650;48.882;2.092;2023-05-27T07:26:05;14.80;63.40
51559;DHT22;61650;48.882;2.092;2023-05-27T07:28:31;14.90;63.60
51559;DHT22;61650;48.882;2.092;2023-05-27T07:30:57;15.00;63.00
51559;DHT22;61650;48.882;2.092;2023-05-27T07:33:23;15.10;62.30
51559;DHT22;61650;48.882;2.092;2023-05-27T07:35:48;15.20;63.20
51559;DHT22;61650;48.882;2.092;2023-05-27T07:38:14;15.30;62.50
51559;DHT22;61650;48.882;2.092;2023-05-27T07:40:40;15.30;62.30
51559;DHT22;61650;48.882;2.092;2023-05-27T07:43:06;15.20;62.40
51559;DHT22;61650;48.882;2.092;2023-05-27T07:45:31;15.20;61.90
51559;DHT22;61650;48.882;2.092;2023-05-27T07:47:57;15.50;62.20
51559;DHT22;61650;48.882;2.092;2023-05-27T07:50:23;15.70;61.20
51559;DHT22;61650;48.882;2.092;2023-05-27T07:52:49;15.90;61.10
51559;DHT22;61650;48.882;2.092;2023-05-27T07:55:15;15.90;61.10
51559;DHT22;61650;48.882;2.092;2023-05-27T07:57:41;16.00;60.80
51559;DHT22;61650;48.882;2.092;2023-05-27T08:00:09;16.10;58.70
51559;DHT22;61650;48.882;2.092;2023-05-27T08:02:35;16.30;57.20
51559;DHT22;61650;48.882;2.092;2023-05-27T08:05:02;16.40;59.50
51559;DHT22;61650;48.882;2.092;2023-05-27T08:07:29;16.40;59.10
51559;DHT22;61650;48.882;2.092;2023-05-27T08:09:55;16.60;57.90
51559;DHT22;61650;48.882;2.092;2023-05-27T08:12:21;16.70;56.80
51559;DHT22;61650;48.882;2.092;2023-05-27T08:14:47;16.80;58.00
51559;DHT22;61650;48.882;2.092;2023-05-27T08:17:13;16.90;55.70
51559;DHT22;61650;48.882;2.092;2023-05-27T08:19:39;17.00;56.20
51559;DHT22;61650;48.882;2.092;2023-05-27T08:22:05;17.10;56.40
51559;DHT22;61650;48.882;2.092;2023-05-27T08:24:34;17.10;56.70
51559;DHT22;61650;48.882;2.092;2023-05-27T08:27:00;17.00;56.80
51559;DHT22;61650;48.882;2.092;2023-05-27T08:29:28;17.00;56.90
51559;DHT22;61650;48.882;2.092;2023-05-27T08:31:56;17.20;56.70
51559;DHT22;61650;48.882;2.092;2023-05-27T08:34:22;17.40;56.30
51559;DHT22;61650;48.882;2.092;2023-05-27T08:36:47;17.40;56.00
51559;DHT22;61650;48.882;2.092;2023-05-27T08:39:13;17.50;54.30
51559;DHT22;61650;48.882;2.092;2023-05-27T08:41:39;17.60;56.40
51559;DHT22;61650;48.882;2.092;2023-05-27T08:44:06;17.60;55.50
51559;DHT22;61650;48.882;2.092;2023-05-27T08:46:32;17.50;54.90
51559;DHT22;61650;48.882;2.092;2023-05-27T08:48:59;17.60;54.80
51559;DHT22;61650;48.882;2.092;2023-05-27T08:51:25;17.70;56.10
51559;DHT22;61650;48.882;2.092;2023-05-27T08:53:52;17.80;55.20
51559;DHT22;61650;48.882;2.092;2023-05-27T08:56:19;17.90;55.30
51559;DHT22;61650;48.882;2.092;2023-05-27T08:58:47;17.80;53.80
51559;DHT22;61650;48.882;2.092;2023-05-27T09:01:19;18.00;54.10
51559;DHT22;61650;48.882;2.092;2023-05-27T09:03:45;18.20;55.40
51559;DHT22;61650;48.882;2.092;2023-05-27T09:06:11;18.30;53.90
51559;DHT22;61650;48.882;2.092;2023-05-27T09:08:37;18.40;55.00
51559;DHT22;61650;48.882;2.092;2023-05-27T09:11:02;18.50;54.90
51559;DHT22;61650;48.882;2.092;2023-05-27T09:13:29;18.60;54.70
51559;DHT22;61650;48.882;2.092;2023-05-27T09:16:02;18.50;54.70
51559;DHT22;61650;48.882;2.092;2023-05-27T09:18:31;18.40;53.80
51559;DHT22;61650;48.882;2.092;2023-05-27T09:20:56;18.40;54.20
51559;DHT22;61650;48.882;2.092;2023-05-27T09:23:22;18.50;54.30
51559;DHT22;61650;48.882;2.092;2023-05-27T09:25:48;18.70;54.00
51559;DHT22;61650;48.882;2.092;2023-05-27T09:28:25;18.90;52.20
51559;DHT22;61650;48.882;2.092;2023-05-27T09:31:01;19.00;51.60
51559;DHT22;61650;48.882;2.092;2023-05-27T09:33:33;19.00;53.70
51559;DHT22;61650;48.882;2.092;2023-05-27T09:36:00;19.20;54.00
51559;DHT22;61650;48.882;2.092;2023-05-27T09:38:30;19.30;53.30
51559;DHT22;61650;48.882;2.092;2023-05-27T09:40:57;19.30;52.70
51559;DHT22;61650;48.882;2.092;2023-05-27T09:43:24;19.30;52.40
51559;DHT22;61650;48.882;2.092;2023-05-27T09:45:52;19.30;52.40
51559;DHT22;61650;48.882;2.092;2023-05-27T09:48:21;19.30;54.40
51559;DHT22;61650;48.882;2.092;2023-05-27T09:50:49;19.50;54.40
51559;DHT22;61650;48.882;2.092;2023-05-27T09:53:16;19.70;53.20
51559;DHT22;61650;48.882;2.092;2023-05-27T09:55:43;19.70;52.50
51559;DHT22;61650;48.882;2.092;2023-05-27T09:58:09;19.70;53.30
51559;DHT22;61650;48.882;2.092;2023-05-27T10:00:37;19.60;53.70
51559;DHT22;61650;48.882;2.092;2023-05-27T10:03:05;19.50;54.70
51559;DHT22;61650;48.882;2.092;2023-05-27T10:05:33;19.60;54.00
51559;DHT22;61650;48.882;2.092;2023-05-27T10:07:59;19.70;53.50
51559;DHT22;61650;48.882;2.092;2023-05-27T10:10:27;19.80;52.60
51559;DHT22;61650;48.882;2.092;2023-05-27T10:12:53;20.00;53.00
51559;DHT22;61650;48.882;2.092;2023-05-27T10:15:24;19.90;51.70
51559;DHT22;61650;48.882;2.092;2023-05-27T10:18:04;19.80;54.30
51559;DHT22;61650;48.882;2.092;2023-05-27T10:20:41;20.00;53.60
51559;DHT22;61650;48.882;2.092;2023-05-27T10:23:19;20.10;52.60
51559;DHT22;61650;48.882;2.092;2023-05-27T10:25:53;20.10;52.60
51559;DHT22;61650;48.882;2.092;2023-05-27T10:28:36;20.40;49.50
51559;DHT22;61650;48.882;2.092;2023-05-27T10:33:38;20.70;51.80
51559;DHT22;61650;48.882;2.092;2023-05-27T10:36:21;20.90;48.40
51559;DHT22;61650;48.882;2.092;2023-05-27T10:39:04;21.00;50.10
51559;DHT22;61650;48.882;2.092;2023-05-27T10:42:03;21.30;48.80
51559;DHT22;61650;48.882;2.092;2023-05-27T10:44:33;21.40;50.90
51559;DHT22;61650;48.882;2.092;2023-05-27T10:47:08;21.70;49.50
51559;DHT22;61650;48.882;2.092;2023-05-27T10:49:36;21.70;47.90
51559;DHT22;61650;48.882;2.092;2023-05-27T10:52:13;21.70;47.10
51559;DHT22;61650;48.882;2.092;2023-05-27T10:54:40;21.60;49.60
51559;DHT22;61650;48.882;2.092;2023-05-27T10:57:07;21.50;50.30
51559;DHT22;61650;48.882;2.092;2023-05-27T11:02:14;21.30;50.10
51559;DHT22;61650;48.882;2.092;2023-05-27T11:04:39;21.30;50.00
51559;DHT22;61650;48.882;2.092;2023-05-27T11:07:05;21.20;49.10
51559;DHT22;61650;48.882;2.092;2023-05-27T11:09:45;21.20;49.90
51559;DHT22;61650;48.882;2.092;2023-05-27T11:12:21;21.20;50.40
51559;DHT22;61650;48.882;2.092;2023-05-27T11:14:50;21.20;48.80
51559;DHT22;61650;48.882;2.092;2023-05-27T11:17:16;21.30;49.10
51559;DHT22;61650;48.882;2.092;2023-05-27T11:19:43;21.20;50.20
51559;DHT22;61650;48.882;2.092;2023-05-27T11:22:12;21.40;51.00
51559;DHT22;61650;48.882;2.092;2023-05-27T11:24:38;21.50;49.90
51559;DHT22;61650;48.882;2.092;2023-05-27T11:27:12;21.60;49.70
51559;DHT22;61650;48.882;2.092;2023-05-27T11:29:38;21.90;49.20
51559;DHT22;61650;48.882;2.092;2023-05-27T11:32:05;22.50;47.60
51559;DHT22;61650;48.882;2.092;2023-05-27T11:34:33;23.30;46.60
51559;DHT22;61650;48.882;2.092;2023-05-27T11:37:02;23.60;43.90
51559;DHT22;61650;48.882;2.092;2023-05-27T11:39:31;23.60;46.40
51559;DHT22;61650;48.882;2.092;2023-05-27T11:41:57;24.40;45.20
51559;DHT22;61650;48.882;2.092;2023-05-27T11:44:24;24.80;42.20
51559;DHT22;61650;48.882;2.092;2023-05-27T11:46:51;25.50;43.50
51559;DHT22;61650;48.882;2.092;2023-05-27T11:49:18;26.10;42.50
51559;DHT22;61650;48.882;2.092;2023-05-27T11:51:46;26.90;41.00
51559;DHT22;61650;48.882;2.092;2023-05-27T11:54:19;27.40;38.20
51559;DHT22;61650;48.882;2.092;2023-05-27T11:56:48;26.90;38.20
51559;DHT22;61650;48.882;2.092;2023-05-27T11:59:15;26.00;40.40
51559;DHT22;61650;48.882;2.092;2023-05-27T12:01:41;25.30;41.30
51559;DHT22;61650;48.882;2.092;2023-05-27T12:04:07;25.20;42.90
51559;DHT22;61650;48.882;2.092;2023-05-27T12:06:33;24.90;41.20
51559;DHT22;61650;48.882;2.092;2023-05-27T12:09:05;24.40;44.10
51559;DHT22;61650;48.882;2.092;2023-05-27T12:11:31;24.60;41.90
51559;DHT22;61650;48.882;2.092;2023-05-27T12:13:57;24.80;42.00
51559;DHT22;61650;48.882;2.092;2023-05-27T12:16:23;25.40;42.30
51559;DHT22;61650;48.882;2.092;2023-05-27T12:18:49;25.90;41.30
51559;DHT22;61650;48.882;2.092;2023-05-27T12:21:15;26.30;42.10
51559;DHT22;61650;48.882;2.092;2023-05-27T12:23:41;26.80;39.50
51559;DHT22;61650;48.882;2.092;2023-05-27T12:26:07;27.40;36.60
51559;DHT22;61650;48.882;2.092;2023-05-27T12:28:33;27.50;38.60
51559;DHT22;61650;48.882;2.092;2023-05-27T12:30:58;28.40;37.80
51559;DHT22;61650;48.882;2.092;2023-05-27T12:33:24;29.50;37.90
51559;DHT22;61650;48.882;2.092;2023-05-27T12:35:50;29.10;37.10
51559;DHT22;61650;48.882;2.092;2023-05-27T12:38:16;30.00;34.90
51559;DHT22;61650;48.882;2.092;2023-05-27T12:40:42;29.50;34.80
51559;DHT22;61650;48.882;2.092;2023-05-27T12:43:08;30.20;35.10
51559;DHT22;61650;48.882;2.092;2023-05-27T12:45:34;30.70;32.70
51559;DHT22;61650;48.882;2.092;2023-05-27T12:47:59;30.10;35.70
51559;DHT22;61650;48.882;2.092;2023-05-27T12:50:25;30.50;35.00
51559;DHT22;61650;48.882;2.092;2023-05-27T12:52:51;30.50;34.00
51559;DHT22;61650;48.882;2.092;2023-05-27T12:55:19;30.90;35.00
51559;DHT22;61650;48.882;2.092;2023-05-27T12:57:49;31.60;33.90
51559;DHT22;61650;48.882;2.092;2023-05-27T13:00:16;31.70;32.80
51559;DHT22;61650;48.882;2.092;2023-05-27T13:02:44;31.50;34.30
51559;DHT22;61650;48.882;2.092;2023-05-27T13:05:10;31.70;33.20
51559;DHT22;61650;48.882;2.092;2023-05-27T13:07:37;31.20;33.40
51559;DHT22;61650;48.882;2.092;2023-05-27T13:10:06;31.50;34.10
51559;DHT22;61650;48.882;2.092;2023-05-27T13:12:33;31.50;33.20
51559;DHT22;61650;48.882;2.092;2023-05-27T13:15:00;30.30;32.40
51559;DHT22;61650;48.882;2.092;2023-05-27T13:17:26;30.20;35.10
51559;DHT22;61650;48.882;2.092;2023-05-27T13:19:52;30.20;35.70
51559;DHT22;61650;48.882;2.092;2023-05-27T13:22:18;30.50;35.10
51559;DHT22;61650;48.882;2.092;2023-05-27T13:24:44;31.40;33.60
51559;DHT22;61650;48.882;2.092;2023-05-27T13:27:10;31.70;33.30
51559;DHT22;61650;48.882;2.092;2023-05-27T13:29:36;32.10;32.80
51559;DHT22;61650;48.882;2.092;2023-05-27T13:32:02;31.90;33.30
51559;DHT22;61650;48.882;2.092;2023-05-27T13:34:29;32.20;32.10
51559;DHT22;61650;48.882;2.092;2023-05-27T13:36:55;32.20;33.20
51559;DHT22;61650;48.882;2.092;2023-05-27T13:39:21;32.50;32.50
51559;DHT22;61650;48.882;2.092;2023-05-27T13:41:47;31.90;32.60
51559;DHT22;61650;48.882;2.092;2023-05-27T13:44:13;30.70;33.00
51559;DHT22;61650;48.882;2.092;2023-05-27T13:46:39;29.20;36.00
51559;DHT22;61650;48.882;2.092;2023-05-27T13:49:04;28.00;37.40
51559;DHT22;61650;48.882;2.092;2023-05-27T13:51:30;26.80;39.60
51559;DHT22;61650;48.882;2.092;2023-05-27T13:53:56;26.00;40.70
51559;DHT22;61650;48.882;2.092;2023-05-27T13:56:22;25.40;41.70
51559;DHT22;61650;48.882;2.092;2023-05-27T13:58:54;25.10;42.80
51559;DHT22;61650;48.882;2.092;2023-05-27T14:01:20;25.00;42.60
51559;DHT22;61650;48.882;2.092;2023-05-27T14:03:46;24.90;44.40
51559;DHT22;61650;48.882;2.092;2023-05-27T14:06:12;24.80;43.20
51559;DHT22;61650;48.882;2.092;2023-05-27T14:08:37;24.70;42.70
51559;DHT22;61650;48.882;2.092;2023-05-27T14:11:04;24.70;42.50
51559;DHT22;61650;48.882;2.092;2023-05-27T14:13:29;24.60;42.60
51559;DHT22;61650;48.882;2.092;2023-05-27T14:15:55;24.50;43.90
51559;DHT22;61650;48.882;2.092;2023-05-27T14:18:21;24.40;45.20
51559;DHT22;61650;48.882;2.092;2023-05-27T14:20:47;24.10;46.20
51559;DHT22;61650;48.882;2.092;2023-05-27T14:23:13;23.90;47.10
51559;DHT22;61650;48.882;2.092;2023-05-27T14:25:41;23.80;47.40
51559;DHT22;61650;48.882;2.092;2023-05-27T14:28:07;23.60;47.10
51559;DHT22;61650;48.882;2.092;2023-05-27T14:30:33;23.50;48.20
51559;DHT22;61650;48.882;2.092;2023-05-27T14:33:09;23.30;48.10
51559;DHT22;61650;48.882;2.092;2023-05-27T14:35:39;23.30;47.60
51559;DHT22;61650;48.882;2.092;2023-05-27T14:38:06;23.20;48.10
51559;DHT22;61650;48.882;2.092;2023-05-27T14:40:32;23.20;47.50
51559;DHT22;61650;48.882;2.092;2023-05-27T14:42:58;23.00;49.40
51559;DHT22;61650;48.882;2.092;2023-05-27T14:45:24;22.90;50.40
51559;DHT22;61650;48.882;2.092;2023-05-27T14:47:50;22.80;51.10
51559;DHT22;61650;48.882;2.092;2023-05-27T14:50:17;22.80;50.70
51559;DHT22;61650;48.882;2.092;2023-05-27T14:52:43;22.70;50.70
51559;DHT22;61650;48.882;2.092;2023-05-27T14:55:09;22.70;51.50
51559;DHT22;61650;48.882;2.092;2023-05-27T14:57:34;22.60;51.10
51559;DHT22;61650;48.882;2.092;2023-05-27T15:00:04;22.60;51.10
51559;DHT22;61650;48.882;2.092;2023-05-27T15:02:31;22.50;51.20
51559;DHT22;61650;48.882;2.092;2023-05-27T15:04:56;22.50;51.30
51559;DHT22;61650;48.882;2.092;2023-05-27T15:07:22;22.50;51.00
51559;DHT22;61650;48.882;2.092;2023-05-27T15:09:48;22.50;52.10
51559;DHT22;61650;48.882;2.092;2023-05-27T15:12:19;22.50;52.70
51559;DHT22;61650;48.882;2.092;2023-05-27T15:14:47;22.50;52.90
51559;DHT22;61650;48.882;2.092;2023-05-27T15:17:13;22.50;52.20
51559;DHT22;61650;48.882;2.092;2023-05-27T15:19:39;22.60;53.10
51559;DHT22;61650;48.882;2.092;2023-05-27T15:22:05;22.70;51.90
51559;DHT22;61650;48.882;2.092;2023-05-27T15:24:34;22.80;52.20
51559;DHT22;61650;48.882;2.092;2023-05-27T15:27:00;22.90;51.30
51559;DHT22;61650;48.882;2.092;2023-05-27T15:29:28;23.00;51.80
51559;DHT22;61650;48.882;2.092;2023-05-27T15:31:53;23.10;51.20
51559;DHT22;61650;48.882;2.092;2023-05-27T15:34:19;23.20;50.20
51559;DHT22;61650;48.882;2.092;2023-05-27T15:36:45;23.20;51.00
51559;DHT22;61650;48.882;2.092;2023-05-27T15:39:10;23.20;51.10
51559;DHT22;61650;48.882;2.092;2023-05-27T15:41:36;23.20;50.50